Gimli, Canada
Current Conditions -  °F | °C
As of 9:00 PM on Sunday 21 Dec 2014 (Local Time) from CYWG Reporting Station
Haze Haze  
Wind Chill: 20°   Ceiling: 400
Heat Index: 30°   Visibility: 2.5mi
Dew Point: 28°   Wind: 13mph
Humidity: 93%   Direction: 150°SSE
Pressure: 29.61"   Gusts: NA
Location:  50.64°N, 96.99°W
Report Text: CYWG 220300Z 15011KT 2 1/2SM BR OVC004 M01/M02 A2961 RMK ST8 CIG RGD SLP038
Loading
Personal Weather Stations






























Interactive Weather Map New forecast layout! Learn more

10-Day Weather Forecast

Advertisements
Track Severe Weather on mobile